createdAt,value
2023-04-06T00:01:06.230Z,8.71
2023-04-06T00:03:36.059Z,8.74
2023-04-06T00:06:05.770Z,8.78
2023-04-06T00:08:34.484Z,8.80
2023-04-06T00:11:02.559Z,8.86
2023-04-06T00:13:36.788Z,8.87
2023-04-06T00:16:06.971Z,8.82
2023-04-06T00:18:34.932Z,8.86
2023-04-06T00:21:03.375Z,8.93
2023-04-06T00:23:31.596Z,8.98
2023-04-06T00:25:59.791Z,9.02
2023-04-06T00:28:27.867Z,9.03
2023-04-06T00:30:58.325Z,9.02
2023-04-06T00:33:27.337Z,9.03
2023-04-06T00:35:55.566Z,9.06
2023-04-06T00:38:24.320Z,9.10
2023-04-06T00:40:52.559Z,9.13
2023-04-06T00:43:21.801Z,9.11
2023-04-06T00:45:50.141Z,9.11
2023-04-06T00:48:20.486Z,9.15
2023-04-06T00:50:48.724Z,9.19
2023-04-06T00:53:17.289Z,9.21
2023-04-06T00:55:46.930Z,9.24
2023-04-06T00:58:16.044Z,9.25
2023-04-06T01:00:53.697Z,9.24
2023-04-06T01:03:24.331Z,9.21
2023-04-06T01:05:56.808Z,9.21
2023-04-06T01:08:26.726Z,9.18
2023-04-06T01:11:01.911Z,9.18
2023-04-06T01:13:31.253Z,9.23
2023-04-06T01:16:02.119Z,9.26
2023-04-06T01:18:35.164Z,9.25
2023-04-06T01:21:16.857Z,9.27
2023-04-06T01:23:57.798Z,9.28
2023-04-06T01:26:31.830Z,9.25
2023-04-06T01:29:00.375Z,9.25
2023-04-06T01:31:30.744Z,9.26
2023-04-06T01:33:59.469Z,9.31
2023-04-06T01:36:28.265Z,9.29
2023-04-06T01:39:20.476Z,9.20
2023-04-06T01:41:48.719Z,9.14
2023-04-06T01:44:20.186Z,9.13
2023-04-06T01:46:52.389Z,9.09
2023-04-06T01:49:21.315Z,9.07
2023-04-06T01:51:55.643Z,9.10
2023-04-06T01:54:24.523Z,9.10
2023-04-06T01:57:13.010Z,9.09
2023-04-06T02:00:07.835Z,9.08
2023-04-06T02:02:43.143Z,9.09
2023-04-06T02:05:16.262Z,9.09
2023-04-06T02:07:47.868Z,9.12
2023-04-06T02:10:18.618Z,9.13
2023-04-06T02:12:47.001Z,9.11
2023-04-06T02:15:21.810Z,9.10
2023-04-06T02:17:52.551Z,9.09
2023-04-06T02:20:21.122Z,9.10
2023-04-06T02:22:59.550Z,9.10
2023-04-06T02:25:27.723Z,9.11
2023-04-06T02:27:56.336Z,9.12
2023-04-06T02:30:25.645Z,9.08
2023-04-06T02:32:53.945Z,9.05
2023-04-06T02:35:22.259Z,9.05
2023-04-06T02:37:54.343Z,9.04
2023-04-06T02:40:22.319Z,9.04
2023-04-06T02:42:51.658Z,9.02
2023-04-06T02:45:22.423Z,9.02
2023-04-06T02:47:51.015Z,9.03
2023-04-06T02:50:19.313Z,9.02
2023-04-06T02:52:55.047Z,9.03
2023-04-06T02:55:23.658Z,8.98
2023-04-06T02:57:51.856Z,8.99
2023-04-06T03:00:21.942Z,9.07
2023-04-06T03:02:52.560Z,9.10
2023-04-06T03:05:21.436Z,9.10
2023-04-06T03:07:49.625Z,9.12
2023-04-06T03:10:27.862Z,9.13
2023-04-06T03:12:56.253Z,9.21
2023-04-06T03:15:27.237Z,9.28
2023-04-06T03:18:02.373Z,9.31
2023-04-06T03:20:37.595Z,9.40
2023-04-06T03:23:08.102Z,9.42
2023-04-06T03:25:40.756Z,9.42
2023-04-06T03:28:10.829Z,9.38
2023-04-06T03:30:46.760Z,9.38
2023-04-06T03:33:15.378Z,9.40
2023-04-06T03:35:51.692Z,9.43
2023-04-06T03:38:19.923Z,9.50
2023-04-06T03:40:47.915Z,9.59
2023-04-06T03:43:16.412Z,9.64
2023-04-06T03:45:44.389Z,9.69
2023-04-06T03:48:12.512Z,9.69
2023-04-06T03:50:43.709Z,9.68
2023-04-06T03:53:13.081Z,9.73
2023-04-06T03:55:45.322Z,9.74
2023-04-06T03:58:17.635Z,9.74
2023-04-06T04:00:48.860Z,9.69
2023-04-06T04:03:17.248Z,9.65
2023-04-06T04:05:45.671Z,9.66
2023-04-06T04:08:14.488Z,9.68
2023-04-06T04:10:43.817Z,9.66
2023-04-06T04:13:12.005Z,9.65
2023-04-06T04:15:48.997Z,9.67
2023-04-06T04:18:17.614Z,9.62
2023-04-06T04:20:46.791Z,9.63
2023-04-06T04:23:14.787Z,9.67
2023-04-06T04:25:44.425Z,9.70
2023-04-06T04:28:12.713Z,9.73
2023-04-06T04:30:43.451Z,9.77
2023-04-06T04:33:13.275Z,9.76
2023-04-06T04:35:42.487Z,9.77
2023-04-06T04:38:12.283Z,9.78
2023-04-06T04:40:42.665Z,9.80
2023-04-06T04:43:12.237Z,9.79
2023-04-06T04:45:42.721Z,9.73
2023-04-06T04:48:26.660Z,9.68
2023-04-06T04:51:05.504Z,9.69
2023-04-06T04:53:44.606Z,9.70
2023-04-06T04:56:23.307Z,9.75
2023-04-06T04:58:55.930Z,9.76
2023-04-06T05:01:24.404Z,9.80
2023-04-06T05:03:55.584Z,9.84
2023-04-06T05:06:23.711Z,9.88
2023-04-06T05:08:51.955Z,9.99
2023-04-06T05:11:23.139Z,10.06
2023-04-06T05:13:57.960Z,10.10
2023-04-06T05:16:26.647Z,10.13
2023-04-06T05:18:59.942Z,10.16
2023-04-06T05:21:32.874Z,10.18
2023-04-06T05:24:09.593Z,10.17
2023-04-06T05:26:38.697Z,10.13
2023-04-06T05:29:12.151Z,10.13
2023-04-06T05:31:47.460Z,10.13
2023-04-06T05:34:15.662Z,10.16
2023-04-06T05:36:43.691Z,10.17
2023-04-06T05:39:19.026Z,10.12
2023-04-06T05:41:51.332Z,10.10
2023-04-06T05:44:28.161Z,10.09
2023-04-06T05:47:03.637Z,10.09
2023-04-06T05:49:31.623Z,10.11
2023-04-06T05:52:00.349Z,10.18
2023-04-06T05:54:29.352Z,10.22
2023-04-06T05:57:03.014Z,10.24
2023-04-06T05:59:32.574Z,10.24
2023-04-06T06:02:02.481Z,10.27
2023-04-06T06:04:33.243Z,10.33
2023-04-06T06:07:01.443Z,10.37
2023-04-06T06:09:38.419Z,10.40
2023-04-06T06:12:28.609Z,10.46
2023-04-06T06:14:57.590Z,10.52
2023-04-06T06:17:26.510Z,10.53
2023-04-06T06:19:54.912Z,10.59
2023-04-06T06:22:22.853Z,10.66
2023-04-06T06:24:52.138Z,10.72
2023-04-06T06:27:21.526Z,10.79
2023-04-06T06:29:50.017Z,10.84
2023-04-06T06:32:18.946Z,10.86
2023-04-06T06:34:49.718Z,10.90
2023-04-06T06:37:20.717Z,10.92
2023-04-06T06:39:49.132Z,10.99
2023-04-06T06:42:17.343Z,11.08
2023-04-06T06:44:51.179Z,11.08
2023-04-06T06:47:20.252Z,11.07
2023-04-06T06:49:48.470Z,11.12
2023-04-06T06:52:21.360Z,11.16
2023-04-06T06:54:50.177Z,11.18
2023-04-06T06:57:18.947Z,11.13
2023-04-06T06:59:49.812Z,11.25
2023-04-06T07:02:20.403Z,11.43
2023-04-06T07:04:50.505Z,11.41
2023-04-06T07:07:18.746Z,11.37
2023-04-06T07:09:47.057Z,11.32
2023-04-06T07:12:15.665Z,11.24
2023-04-06T07:14:43.794Z,11.18
2023-04-06T07:17:12.317Z,11.20
2023-04-06T07:19:40.800Z,11.24
2023-04-06T07:22:13.533Z,11.29
2023-04-06T07:24:41.628Z,11.37
2023-04-06T07:27:09.653Z,11.44
2023-04-06T07:29:39.791Z,11.51
2023-04-06T07:32:08.117Z,11.56
2023-04-06T07:34:41.044Z,11.65
2023-04-06T07:37:11.264Z,11.75
2023-04-06T07:39:45.250Z,11.75
2023-04-06T07:42:17.828Z,11.75
2023-04-06T07:44:46.705Z,11.75
2023-04-06T07:47:18.352Z,11.72
2023-04-06T07:49:46.948Z,11.66
2023-04-06T07:52:15.361Z,11.59
2023-04-06T07:54:43.920Z,11.51
2023-04-06T07:57:11.983Z,11.49
2023-04-06T07:59:40.159Z,11.54
2023-04-06T08:02:08.563Z,11.57
2023-04-06T08:04:36.964Z,11.62
2023-04-06T08:07:05.021Z,11.63
2023-04-06T08:09:34.476Z,11.68
2023-04-06T08:12:06.828Z,11.71
2023-04-06T08:14:35.153Z,11.81
2023-04-06T08:17:05.245Z,11.93
2023-04-06T08:19:34.673Z,12.05
2023-04-06T08:22:03.542Z,12.16
2023-04-06T08:24:33.479Z,12.16
2023-04-06T08:27:01.573Z,12.13
2023-04-06T08:29:30.036Z,12.10
2023-04-06T08:31:58.168Z,12.07
2023-04-06T08:34:26.392Z,11.96
2023-04-06T08:36:54.648Z,11.88
2023-04-06T08:39:26.578Z,11.86
2023-04-06T08:41:58.012Z,11.83
2023-04-06T08:46:31.893Z,11.82
2023-04-06T08:49:03.040Z,11.74
2023-04-06T08:51:31.474Z,11.74
2023-04-06T08:54:00.502Z,11.69
2023-04-06T08:56:29.138Z,11.71
2023-04-06T08:58:57.553Z,11.76
2023-04-06T09:01:29.602Z,11.82
2023-04-06T09:04:08.234Z,11.83
2023-04-06T09:06:38.026Z,11.87
2023-04-06T09:09:06.099Z,11.98
2023-04-06T09:11:47.501Z,12.02
2023-04-06T09:14:37.530Z,11.99
2023-04-06T09:17:07.923Z,11.93
2023-04-06T09:19:47.182Z,11.89
2023-04-06T09:22:15.779Z,11.81
2023-04-06T09:24:47.967Z,11.76
2023-04-06T09:27:16.094Z,11.73
2023-04-06T09:29:44.608Z,11.72
2023-04-06T09:32:12.878Z,11.69
2023-04-06T09:34:41.131Z,11.65
2023-04-06T09:37:15.892Z,11.64
2023-04-06T09:39:44.835Z,11.59
2023-04-06T09:42:24.733Z,11.51
2023-04-06T09:44:53.610Z,11.50
2023-04-06T09:47:25.780Z,11.49
2023-04-06T09:49:59.234Z,11.42
2023-04-06T09:52:34.056Z,11.33
2023-04-06T09:55:04.661Z,11.14
2023-04-06T09:57:51.857Z,10.98
2023-04-06T10:00:22.126Z,10.90
2023-04-06T10:03:22.732Z,10.86
2023-04-06T10:06:12.292Z,10.84
2023-04-06T10:08:42.796Z,10.78
2023-04-06T10:11:12.188Z,10.73
2023-04-06T10:13:41.198Z,10.74
2023-04-06T10:16:09.506Z,10.72
2023-04-06T10:18:38.145Z,10.66
2023-04-06T10:21:16.387Z,10.63
2023-04-06T10:23:53.844Z,10.69
2023-04-06T10:26:22.734Z,10.68
2023-04-06T10:28:51.944Z,10.62
2023-04-06T10:31:30.594Z,10.49
2023-04-06T10:34:00.271Z,10.49
2023-04-06T10:36:29.759Z,10.50
2023-04-06T10:39:00.437Z,10.48
2023-04-06T10:41:43.061Z,10.52
2023-04-06T10:44:24.464Z,10.56
2023-04-06T10:47:01.782Z,10.62
2023-04-06T10:49:31.080Z,10.68
2023-04-06T10:51:59.220Z,10.66
2023-04-06T10:54:28.285Z,10.58
2023-04-06T10:56:57.594Z,10.57
2023-04-06T10:59:26.532Z,10.65
2023-04-06T11:01:56.880Z,10.71
2023-04-06T11:04:26.175Z,10.80
2023-04-06T11:06:56.044Z,10.87
2023-04-06T11:09:32.527Z,10.82
2023-04-06T11:12:01.807Z,10.83
2023-04-06T11:14:31.401Z,10.78
2023-04-06T11:16:59.392Z,10.76
2023-04-06T11:19:28.259Z,10.78
2023-04-06T11:21:59.896Z,10.83
2023-04-06T11:24:28.111Z,10.92
2023-04-06T11:27:02.084Z,11.02
2023-04-06T11:29:31.850Z,11.07
2023-04-06T11:32:01.856Z,11.05
2023-04-06T11:34:31.301Z,11.07
2023-04-06T11:37:00.965Z,11.14
2023-04-06T11:39:30.449Z,11.18
2023-04-06T11:41:59.553Z,11.23
2023-04-06T11:44:37.460Z,11.27
2023-04-06T11:47:13.234Z,11.33
2023-04-06T11:49:42.931Z,11.32
2023-04-06T11:52:17.811Z,11.25
2023-04-06T11:54:46.624Z,11.29
2023-04-06T11:57:14.814Z,11.40
2023-04-06T11:59:43.897Z,11.37
2023-04-06T12:02:12.566Z,11.26
2023-04-06T12:04:41.475Z,11.22
2023-04-06T12:07:10.600Z,11.23
2023-04-06T12:09:39.948Z,11.28
2023-04-06T12:12:08.553Z,11.38
2023-04-06T12:14:36.628Z,11.38
2023-04-06T12:17:05.112Z,11.43
2023-04-06T12:19:33.042Z,11.53
2023-04-06T12:22:01.148Z,11.64
2023-04-06T12:24:30.170Z,11.74
2023-04-06T12:27:10.031Z,11.80
2023-04-06T12:29:39.830Z,11.86
2023-04-06T12:32:07.918Z,11.90
2023-04-06T12:34:36.512Z,11.96
2023-04-06T12:37:04.602Z,12.02
2023-04-06T12:39:36.342Z,12.08
2023-04-06T12:42:05.754Z,12.09
2023-04-06T12:44:33.798Z,12.14
2023-04-06T12:47:02.310Z,12.16
2023-04-06T12:49:31.968Z,12.13
2023-04-06T12:52:06.783Z,12.07
2023-04-06T12:54:35.070Z,12.07
2023-04-06T12:57:03.293Z,12.04
2023-04-06T12:59:36.468Z,11.99
2023-04-06T13:02:06.127Z,12.05
2023-04-06T13:04:34.204Z,12.01
2023-04-06T13:07:05.825Z,11.99
2023-04-06T13:09:34.190Z,12.10
2023-04-06T13:12:02.185Z,12.09
2023-04-06T13:14:30.548Z,11.92
2023-04-06T13:16:58.922Z,11.94
2023-04-06T13:19:27.631Z,12.00
2023-04-06T13:21:57.121Z,12.00
2023-04-06T13:24:25.293Z,11.98
2023-04-06T13:26:53.505Z,11.97
2023-04-06T13:29:22.063Z,12.03
2023-04-06T13:31:50.019Z,12.07
2023-04-06T13:34:18.087Z,12.10
2023-04-06T13:36:46.372Z,12.19
2023-04-06T13:39:20.166Z,12.30
2023-04-06T13:41:48.587Z,12.32
2023-04-06T13:44:17.134Z,12.36
2023-04-06T13:46:45.636Z,12.33
2023-04-06T13:49:13.655Z,12.29
2023-04-06T13:51:43.781Z,12.30
2023-04-06T13:54:11.726Z,12.31
2023-04-06T13:56:39.675Z,12.35
2023-04-06T13:59:08.064Z,12.37
2023-04-06T14:01:36.473Z,12.31
2023-04-06T14:04:05.743Z,12.19
2023-04-06T14:06:35.287Z,12.10
2023-04-06T14:09:03.929Z,12.00
2023-04-06T14:11:32.846Z,11.92
2023-04-06T14:14:01.294Z,11.92
2023-04-06T14:16:29.404Z,11.93
2023-04-06T14:18:59.895Z,11.91
2023-04-06T14:21:27.844Z,11.90
2023-04-06T14:23:58.071Z,11.84
2023-04-06T14:26:28.555Z,11.79
2023-04-06T14:29:03.538Z,11.83
2023-04-06T14:31:32.407Z,11.91
2023-04-06T14:34:02.300Z,11.94
2023-04-06T14:36:37.525Z,11.98
2023-04-06T14:39:06.853Z,12.09
2023-04-06T14:41:37.668Z,12.18
2023-04-06T14:44:06.650Z,12.14
2023-04-06T14:46:35.160Z,12.12
2023-04-06T14:49:04.417Z,12.13
2023-04-06T14:51:34.854Z,12.10
2023-04-06T14:54:06.059Z,12.11
2023-04-06T14:56:34.111Z,12.11
2023-04-06T14:59:02.738Z,12.13
2023-04-06T15:01:31.049Z,12.20
2023-04-06T15:04:00.389Z,12.19
2023-04-06T15:06:31.544Z,12.21
2023-04-06T15:09:00.446Z,12.21
2023-04-06T15:11:28.854Z,12.19
2023-04-06T15:13:59.839Z,12.23
2023-04-06T15:16:33.362Z,12.23
2023-04-06T15:19:02.571Z,12.15
2023-04-06T15:21:33.575Z,12.04
2023-04-06T15:24:02.295Z,11.99
2023-04-06T15:26:30.882Z,11.98
2023-04-06T15:28:58.971Z,11.97
2023-04-06T15:31:37.413Z,11.93
2023-04-06T15:34:09.041Z,11.97
2023-04-06T15:36:38.148Z,11.91
2023-04-06T15:39:10.018Z,11.81
2023-04-06T15:41:39.141Z,11.79
2023-04-06T15:44:07.291Z,11.85
2023-04-06T15:46:36.049Z,11.95
2023-04-06T15:49:04.073Z,12.00
2023-04-06T15:51:33.589Z,11.92
2023-04-06T15:54:01.777Z,11.90
2023-04-06T15:56:29.858Z,11.97
2023-04-06T15:59:01.491Z,12.03
2023-04-06T16:01:31.171Z,12.00
2023-04-06T16:04:00.512Z,11.94
2023-04-06T16:06:28.886Z,11.84
2023-04-06T16:08:57.684Z,11.64
2023-04-06T16:11:26.411Z,11.45
2023-04-06T16:13:55.610Z,11.27
2023-04-06T16:16:24.522Z,11.05
2023-04-06T16:18:52.958Z,10.89
2023-04-06T16:21:21.073Z,10.79
2023-04-06T16:23:49.380Z,10.68
2023-04-06T16:26:21.760Z,10.64
2023-04-06T16:28:51.560Z,10.69
2023-04-06T16:31:23.822Z,10.64
2023-04-06T16:33:53.576Z,10.62
2023-04-06T16:36:25.204Z,10.60
2023-04-06T16:38:57.274Z,10.54
2023-04-06T16:41:27.647Z,10.55
2023-04-06T16:43:57.533Z,10.53
2023-04-06T16:46:36.059Z,10.45
2023-04-06T16:49:05.240Z,10.34
2023-04-06T16:51:33.913Z,10.32
2023-04-06T16:54:02.511Z,10.26
2023-04-06T16:56:31.782Z,10.17
2023-04-06T16:59:00.090Z,10.16
2023-04-06T17:01:28.833Z,10.15
2023-04-06T17:03:57.351Z,10.15
2023-04-06T17:06:27.122Z,10.19
2023-04-06T17:08:55.362Z,10.24
2023-04-06T17:11:48.541Z,10.32
2023-04-06T17:14:13.197Z,10.45
2023-04-06T17:16:41.198Z,10.46
2023-04-06T17:19:09.345Z,10.38
2023-04-06T17:21:40.543Z,10.31
2023-04-06T17:24:09.442Z,10.34
2023-04-06T17:26:37.862Z,10.38
2023-04-06T17:29:06.124Z,10.30
2023-04-06T17:31:37.743Z,10.28
2023-04-06T17:34:06.628Z,10.33
2023-04-06T17:36:34.607Z,10.33
2023-04-06T17:39:03.472Z,10.28
2023-04-06T17:41:33.939Z,10.26
2023-04-06T17:44:01.952Z,10.21
2023-04-06T17:46:30.509Z,10.18
2023-04-06T17:48:58.892Z,10.13
2023-04-06T17:51:27.245Z,10.19
2023-04-06T17:53:55.459Z,10.23
2023-04-06T17:56:24.375Z,10.17
2023-04-06T17:58:56.615Z,10.18
2023-04-06T18:01:31.749Z,10.34
2023-04-06T18:04:00.089Z,10.43
2023-04-06T18:06:28.513Z,10.34
2023-04-06T18:08:56.922Z,10.30
2023-04-06T18:11:29.475Z,10.30
2023-04-06T18:13:57.837Z,10.28
2023-04-06T18:16:26.080Z,10.20
2023-04-06T18:18:55.623Z,10.10
2023-04-06T18:21:23.894Z,9.99
2023-04-06T18:23:55.206Z,9.93
2023-04-06T18:26:24.734Z,9.97
2023-04-06T18:28:52.846Z,9.90
2023-04-06T18:31:21.943Z,9.91
2023-04-06T18:33:51.364Z,9.92
2023-04-06T18:36:21.224Z,9.81
2023-04-06T18:38:50.229Z,9.74
2023-04-06T18:41:22.672Z,9.70
2023-04-06T18:50:55.106Z,9.72
2023-04-06T18:53:23.413Z,9.66
2023-04-06T18:55:51.800Z,9.63
2023-04-06T18:58:20.207Z,9.58
2023-04-06T19:00:48.652Z,9.51
2023-04-06T19:03:19.822Z,9.47
2023-04-06T19:05:49.416Z,9.48
2023-04-06T19:08:17.787Z,9.54
2023-04-06T19:10:49.606Z,9.53
2023-04-06T19:13:18.112Z,9.47
2023-04-06T19:15:46.395Z,9.37
2023-04-06T19:18:14.324Z,9.29
2023-04-06T19:20:43.015Z,9.28
2023-04-06T19:23:14.419Z,9.24
2023-04-06T19:25:42.922Z,9.11
2023-04-06T19:28:11.026Z,8.99
2023-04-06T19:30:39.019Z,8.93
2023-04-06T19:33:07.924Z,8.86
2023-04-06T19:35:36.206Z,8.70
2023-04-06T19:38:04.450Z,8.60
2023-04-06T19:40:32.521Z,8.58
2023-04-06T19:43:00.540Z,8.54
2023-04-06T19:45:29.952Z,8.47
2023-04-06T19:47:57.955Z,8.38
2023-04-06T19:50:26.909Z,8.37
2023-04-06T19:52:56.251Z,8.35
2023-04-06T19:55:24.198Z,8.42
2023-04-06T19:57:52.988Z,8.46
2023-04-06T20:00:21.133Z,8.46
2023-04-06T20:02:49.275Z,8.51
2023-04-06T20:05:17.496Z,8.52
2023-04-06T20:07:45.890Z,8.56
2023-04-06T20:10:16.735Z,8.58
2023-04-06T20:12:45.225Z,8.56
2023-04-06T20:15:13.438Z,8.50
2023-04-06T20:17:44.830Z,8.46
2023-04-06T20:20:13.618Z,8.49
2023-04-06T20:22:41.823Z,8.45
2023-04-06T20:25:11.516Z,8.33
2023-04-06T20:27:40.038Z,8.23
2023-04-06T20:30:09.323Z,8.19
2023-04-06T20:32:39.608Z,8.12
2023-04-06T20:35:08.291Z,8.02
2023-04-06T20:37:39.333Z,7.92
2023-04-06T20:40:08.212Z,7.85
2023-04-06T20:42:37.518Z,7.83
2023-04-06T20:45:06.717Z,7.72
2023-04-06T20:47:34.973Z,7.63
2023-04-06T20:50:03.792Z,7.60
2023-04-06T20:52:32.891Z,7.53
2023-04-06T20:55:01.662Z,7.49
2023-04-06T20:57:29.902Z,7.44
2023-04-06T20:59:57.992Z,7.39
2023-04-06T21:03:13.446Z,7.38
2023-04-06T21:05:41.498Z,7.42
2023-04-06T21:08:09.717Z,7.49
2023-04-06T21:10:38.179Z,7.53
2023-04-06T21:13:06.171Z,7.55
2023-04-06T21:15:34.103Z,7.52
2023-04-06T21:18:02.994Z,7.45
2023-04-06T21:20:31.788Z,7.40
2023-04-06T21:22:59.953Z,7.37
2023-04-06T21:25:28.051Z,7.30
2023-04-06T21:27:56.350Z,7.25
2023-04-06T21:30:26.006Z,7.23
2023-04-06T21:32:54.753Z,7.20
2023-04-06T21:35:22.803Z,7.17
2023-04-06T21:37:52.265Z,7.13
2023-04-06T21:40:20.967Z,7.04
2023-04-06T21:42:49.827Z,6.91
2023-04-06T21:45:18.481Z,6.83
2023-04-06T21:47:46.420Z,6.81
2023-04-06T21:50:14.501Z,6.77
2023-04-06T21:52:42.421Z,6.69
2023-04-06T21:55:11.344Z,6.72
2023-04-06T21:57:39.272Z,6.82
2023-04-06T22:00:10.311Z,6.85
2023-04-06T22:02:45.837Z,6.88
2023-04-06T22:05:14.863Z,6.94
2023-04-06T22:10:32.679Z,6.90
2023-04-06T22:13:01.561Z,6.86
2023-04-06T22:15:29.907Z,6.86
2023-04-06T22:17:57.900Z,6.84
2023-04-06T22:20:25.959Z,6.86
2023-04-06T22:22:53.903Z,6.93
2023-04-06T22:25:25.415Z,6.95
2023-04-06T22:27:53.464Z,6.93
2023-04-06T22:30:21.400Z,6.88
2023-04-06T22:32:53.887Z,6.88
2023-04-06T22:35:22.215Z,6.93
2023-04-06T22:37:50.496Z,6.95
2023-04-06T22:40:18.446Z,6.90
2023-04-06T22:42:47.039Z,6.82
2023-04-06T22:45:15.291Z,6.76
2023-04-06T22:47:44.052Z,6.67
2023-04-06T22:50:12.397Z,6.61
2023-04-06T22:52:41.136Z,6.61
2023-04-06T22:55:09.194Z,6.72
2023-04-06T22:57:37.358Z,6.73
2023-04-06T23:00:06.425Z,6.79
2023-04-06T23:02:35.586Z,6.81
2023-04-06T23:05:04.930Z,6.71
2023-04-06T23:07:33.060Z,6.76
2023-04-06T23:10:01.698Z,6.84
2023-04-06T23:12:29.895Z,6.86
2023-04-06T23:14:57.897Z,6.94
2023-04-06T23:17:27.510Z,7.03
2023-04-06T23:19:55.788Z,7.15
2023-04-06T23:22:23.818Z,7.31
2023-04-06T23:24:52.296Z,7.44
2023-04-06T23:27:20.461Z,7.39
2023-04-06T23:29:49.372Z,7.28
2023-04-06T23:32:17.889Z,7.28
2023-04-06T23:34:46.397Z,7.12
2023-04-06T23:37:15.077Z,6.96
2023-04-06T23:39:44.916Z,6.86
2023-04-06T23:42:16.318Z,6.78
2023-04-06T23:44:45.765Z,6.62
2023-04-06T23:47:13.747Z,6.48
2023-04-06T23:49:42.821Z,6.44
2023-04-06T23:52:11.516Z,6.43
2023-04-06T23:54:39.635Z,6.38
2023-04-06T23:57:07.628Z,6.30
2023-04-06T23:59:40.275Z,6.35
